sensor_id;sensor_type;location;lat;lon;timestamp;pressure;altitude;pressure_sealevel;temperature
64394;BMP280;50712;49.506;10.400;2023-10-08T00:00:27;98691.88;;;19.42
64394;BMP280;50712;49.506;10.400;2023-10-08T00:01:18;98691.88;;;19.42
64394;BMP280;50712;49.506;10.400;2023-10-08T00:01:49;98690.38;;;19.41
64394;BMP280;50712;49.506;10.400;2023-10-08T00:02:21;98697.41;;;19.42
64394;BMP280;50712;49.506;10.400;2023-10-08T00:02:52;98688.84;;;19.40
64394;BMP280;50712;49.506;10.400;2023-10-08T00:03:22;98684.88;;;19.41
64394;BMP280;50712;49.506;10.400;2023-10-08T00:03:52;98689.63;;;19.41
64394;BMP280;50712;49.506;10.400;2023-10-08T00:04:28;98677.03;;;19.40
64394;BMP280;50712;49.506;10.400;2023-10-08T00:04:58;98689.63;;;19.41
64394;BMP280;50712;49.506;10.400;2023-10-08T00:05:34;98676.31;;;19.39
64394;BMP280;50712;49.506;10.400;2023-10-08T00:06:06;98679.81;;;19.40
64394;BMP280;50712;49.506;10.400;2023-10-08T00:06:37;98681.06;;;19.39
64394;BMP280;50712;49.506;10.400;2023-10-08T00:07:07;98678.31;;;19.39
64394;BMP280;50712;49.506;10.400;2023-10-08T00:07:38;98681.06;;;19.39
64394;BMP280;50712;49.506;10.400;2023-10-08T00:08:12;98681.06;;;19.39
64394;BMP280;50712;49.506;10.400;2023-10-08T00:08:46;98685.84;;;19.38
64394;BMP280;50712;49.506;10.400;2023-10-08T00:09:17;98686.59;;;19.39
64394;BMP280;50712;49.506;10.400;2023-10-08T00:09:50;98686.59;;;19.39
64394;BMP280;50712;49.506;10.400;2023-10-08T00:10:21;98671.28;;;19.38
64394;BMP280;50712;49.506;10.400;2023-10-08T00:10:56;98681.56;;;19.37
64394;BMP280;50712;49.506;10.400;2023-10-08T00:11:26;98673.28;;;19.37
64394;BMP280;50712;49.506;10.400;2023-10-08T00:11:59;98677.56;;;19.38
64394;BMP280;50712;49.506;10.400;2023-10-08T00:12:31;98674.03;;;19.38
64394;BMP280;50712;49.506;10.400;2023-10-08T00:13:01;98674.03;;;19.38
64394;BMP280;50712;49.506;10.400;2023-10-08T00:13:32;98676.03;;;19.37
64394;BMP280;50712;49.506;10.400;2023-10-08T00:14:09;98674.03;;;19.38
64394;BMP280;50712;49.506;10.400;2023-10-08T00:14:40;98672.50;;;19.37
64394;BMP280;50712;49.506;10.400;2023-10-08T00:15:14;98678.78;;;19.37
64394;BMP280;50712;49.506;10.400;2023-10-08T00:15:44;98684.31;;;19.37
64394;BMP280;50712;49.506;10.400;2023-10-08T00:16:24;98681.56;;;19.37
64394;BMP280;50712;49.506;10.400;2023-10-08T00:16:56;98670.50;;;19.37
64394;BMP280;50712;49.506;10.400;2023-10-08T00:17:26;98677.25;;;19.36
64394;BMP280;50712;49.506;10.400;2023-10-08T00:17:56;98671.75;;;19.36
64394;BMP280;50712;49.506;10.400;2023-10-08T00:18:28;98677.25;;;19.36
64394;BMP280;50712;49.506;10.400;2023-10-08T00:18:59;98678.53;;;19.35
64394;BMP280;50712;49.506;10.400;2023-10-08T00:19:37;98675.75;;;19.35
64394;BMP280;50712;49.506;10.400;2023-10-08T00:20:09;98673.72;;;19.36
64394;BMP280;50712;49.506;10.400;2023-10-08T00:20:40;98677.78;;;19.35
64394;BMP280;50712;49.506;10.400;2023-10-08T00:21:17;98681.28;;;19.35
64394;BMP280;50712;49.506;10.400;2023-10-08T00:21:50;98675.75;;;19.35
64394;BMP280;50712;49.506;10.400;2023-10-08T00:22:23;98681.28;;;19.35
64394;BMP280;50712;49.506;10.400;2023-10-08T00:22:55;98685.31;;;19.34
64394;BMP280;50712;49.506;10.400;2023-10-08T00:23:25;98675.03;;;19.35
64394;BMP280;50712;49.506;10.400;2023-10-08T00:23:56;98682.03;;;19.36
64394;BMP280;50712;49.506;10.400;2023-10-08T00:24:30;98686.09;;;19.35
64394;BMP280;50712;49.506;10.400;2023-10-08T00:25:03;98683.31;;;19.35
64394;BMP280;50712;49.506;10.400;2023-10-08T00:25:41;98691.09;;;19.36
64394;BMP280;50712;49.506;10.400;2023-10-08T00:26:13;98686.09;;;19.35
64394;BMP280;50712;49.506;10.400;2023-10-08T00:26:50;98678.53;;;19.35
64394;BMP280;50712;49.506;10.400;2023-10-08T00:27:21;98682.78;;;19.36
64394;BMP280;50712;49.506;10.400;2023-10-08T00:27:52;98686.09;;;19.35
64394;BMP280;50712;49.506;10.400;2023-10-08T00:28:22;98681.28;;;19.35
64394;BMP280;50712;49.506;10.400;2023-10-08T00:28:59;98682.56;;;19.34
64394;BMP280;50712;49.506;10.400;2023-10-08T00:29:31;98687.56;;;19.36
64394;BMP280;50712;49.506;10.400;2023-10-08T00:30:01;98685.31;;;19.34
64394;BMP280;50712;49.506;10.400;2023-10-08T00:30:41;98684.06;;;19.35
64394;BMP280;50712;49.506;10.400;2023-10-08T00:31:11;98675.75;;;19.35
64394;BMP280;50712;49.506;10.400;2023-10-08T00:31:43;98677.78;;;19.35
64394;BMP280;50712;49.506;10.400;2023-10-08T00:32:15;98680.56;;;19.35
64394;BMP280;50712;49.506;10.400;2023-10-08T00:32:47;98687.56;;;19.36
64394;BMP280;50712;49.506;10.400;2023-10-08T00:33:17;98679.78;;;19.34
64394;BMP280;50712;49.506;10.400;2023-10-08T00:33:49;98675.75;;;19.35
64394;BMP280;50712;49.506;10.400;2023-10-08T00:34:19;98675.75;;;19.35
64394;BMP280;50712;49.506;10.400;2023-10-08T00:34:50;98682.03;;;19.36
64394;BMP280;50712;49.506;10.400;2023-10-08T00:35:20;98681.28;;;19.35
64394;BMP280;50712;49.506;10.400;2023-10-08T00:35:50;98686.09;;;19.35
64394;BMP280;50712;49.506;10.400;2023-10-08T00:36:21;98677.78;;;19.35
64394;BMP280;50712;49.506;10.400;2023-10-08T00:36:54;98680.56;;;19.35
64394;BMP280;50712;49.506;10.400;2023-10-08T00:37:24;98686.31;;;19.37
64394;BMP280;50712;49.506;10.400;2023-10-08T00:37:57;98694.63;;;19.37
64394;BMP280;50712;49.506;10.400;2023-10-08T00:38:30;98687.56;;;19.36
64394;BMP280;50712;49.506;10.400;2023-10-08T00:39:03;98688.31;;;19.36
64394;BMP280;50712;49.506;10.400;2023-10-08T00:39:38;98689.09;;;19.37
64394;BMP280;50712;49.506;10.400;2023-10-08T00:40:10;98687.56;;;19.36
64394;BMP280;50712;49.506;10.400;2023-10-08T00:40:44;98689.09;;;19.37
64394;BMP280;50712;49.506;10.400;2023-10-08T00:41:16;98691.09;;;19.36
64394;BMP280;50712;49.506;10.400;2023-10-08T00:41:52;98687.09;;;19.37
64394;BMP280;50712;49.506;10.400;2023-10-08T00:42:29;98689.09;;;19.37
64394;BMP280;50712;49.506;10.400;2023-10-08T00:43:00;98691.84;;;19.37
64394;BMP280;50712;49.506;10.400;2023-10-08T00:43:34;98684.31;;;19.37
64394;BMP280;50712;49.506;10.400;2023-10-08T00:44:08;98685.09;;;19.38
64394;BMP280;50712;49.506;10.400;2023-10-08T00:44:43;98682.31;;;19.38
64394;BMP280;50712;49.506;10.400;2023-10-08T00:45:21;98681.56;;;19.37
64394;BMP280;50712;49.506;10.400;2023-10-08T00:45:51;98687.84;;;19.38
64394;BMP280;50712;49.506;10.400;2023-10-08T00:46:22;98693.38;;;19.38
64394;BMP280;50712;49.506;10.400;2023-10-08T00:46:56;98687.84;;;19.38
64394;BMP280;50712;49.506;10.400;2023-10-08T00:47:30;98688.63;;;19.38
64394;BMP280;50712;49.506;10.400;2023-10-08T00:48:04;98690.63;;;19.38
64394;BMP280;50712;49.506;10.400;2023-10-08T00:48:36;98690.63;;;19.38
64394;BMP280;50712;49.506;10.400;2023-10-08T00:49:07;98690.13;;;19.39
64394;BMP280;50712;49.506;10.400;2023-10-08T00:50:09;98687.34;;;19.39
64394;BMP280;50712;49.506;10.400;2023-10-08T00:50:43;98689.34;;;19.39
64394;BMP280;50712;49.506;10.400;2023-10-08T00:51:16;98686.59;;;19.39
64394;BMP280;50712;49.506;10.400;2023-10-08T00:51:54;98690.13;;;19.39
64394;BMP280;50712;49.506;10.400;2023-10-08T00:52:45;98684.59;;;19.39
64394;BMP280;50712;49.506;10.400;2023-10-08T00:53:33;98682.56;;;19.40
64394;BMP280;50712;49.506;10.400;2023-10-08T00:54:09;98682.56;;;19.40
64394;BMP280;50712;49.506;10.400;2023-10-08T00:54:41;98684.09;;;19.41
64394;BMP280;50712;49.506;10.400;2023-10-08T00:55:24;98682.56;;;19.40
64394;BMP280;50712;49.506;10.400;2023-10-08T00:55:59;98687.63;;;19.41
64394;BMP280;50712;49.506;10.400;2023-10-08T00:56:36;98682.09;;;19.41
64394;BMP280;50712;49.506;10.400;2023-10-08T00:57:16;98684.09;;;19.41
64394;BMP280;50712;49.506;10.400;2023-10-08T00:57:55;98679.34;;;19.41
64394;BMP280;50712;49.506;10.400;2023-10-08T00:58:40;98674.53;;;19.42
64394;BMP280;50712;49.506;10.400;2023-10-08T00:59:12;98675.81;;;19.41
64394;BMP280;50712;49.506;10.400;2023-10-08T00:59:44;98666.25;;;19.42
64394;BMP280;50712;49.506;10.400;2023-10-08T01:00:20;98678.56;;;19.41
64394;BMP280;50712;49.506;10.400;2023-10-08T01:00:52;98680.84;;;19.42
64394;BMP280;50712;49.506;10.400;2023-10-08T01:01:29;98689.13;;;19.42
64394;BMP280;50712;49.506;10.400;2023-10-08T01:02:01;98683.59;;;19.42
64394;BMP280;50712;49.506;10.400;2023-10-08T01:02:38;98672.53;;;19.42
64394;BMP280;50712;49.506;10.400;2023-10-08T01:03:29;98682.38;;;19.43
64394;BMP280;50712;49.506;10.400;2023-10-08T01:04:00;98678.84;;;19.43
64394;BMP280;50712;49.506;10.400;2023-10-08T01:04:33;98678.84;;;19.43
64394;BMP280;50712;49.506;10.400;2023-10-08T01:05:04;98674.53;;;19.42
64394;BMP280;50712;49.506;10.400;2023-10-08T01:05:35;98678.84;;;19.43
64394;BMP280;50712;49.506;10.400;2023-10-08T01:06:17;98676.06;;;19.43
64394;BMP280;50712;49.506;10.400;2023-10-08T01:06:52;98679.59;;;19.43
64394;BMP280;50712;49.506;10.400;2023-10-08T01:07:31;98682.38;;;19.43
64394;BMP280;50712;49.506;10.400;2023-10-08T01:08:02;98683.13;;;19.44
64394;BMP280;50712;49.506;10.400;2023-10-08T01:08:36;98676.34;;;19.45
64394;BMP280;50712;49.506;10.400;2023-10-08T01:09:07;98676.06;;;19.43
64394;BMP280;50712;49.506;10.400;2023-10-08T01:09:52;98680.38;;;19.44
64394;BMP280;50712;49.506;10.400;2023-10-08T01:10:30;98678.84;;;19.43
64394;BMP280;50712;49.506;10.400;2023-10-08T01:12:53;98691.44;;;19.44
64394;BMP280;50712;49.506;10.400;2023-10-08T01:13:24;98684.38;;;19.43
64394;BMP280;50712;49.506;10.400;2023-10-08T01:13:56;98682.38;;;19.43
64394;BMP280;50712;49.506;10.400;2023-10-08T01:14:28;98683.59;;;19.42
64394;BMP280;50712;49.506;10.400;2023-10-08T01:15:02;98686.38;;;19.42
64394;BMP280;50712;49.506;10.400;2023-10-08T01:15:54;98686.38;;;19.42
64394;BMP280;50712;49.506;10.400;2023-10-08T01:16:25;98680.84;;;19.42
64394;BMP280;50712;49.506;10.400;2023-10-08T01:17:00;98680.06;;;19.42
64394;BMP280;50712;49.506;10.400;2023-10-08T01:17:31;98686.38;;;19.42
64394;BMP280;50712;49.506;10.400;2023-10-08T01:18:02;98683.59;;;19.42
64394;BMP280;50712;49.506;10.400;2023-10-08T01:18:35;98686.38;;;19.42
64394;BMP280;50712;49.506;10.400;2023-10-08T01:19:07;98680.06;;;19.42
64394;BMP280;50712;49.506;10.400;2023-10-08T01:19:43;98680.56;;;19.40
64394;BMP280;50712;49.506;10.400;2023-10-08T01:20:15;98686.38;;;19.42
64394;BMP280;50712;49.506;10.400;2023-10-08T01:21:11;98686.38;;;19.42
64394;BMP280;50712;49.506;10.400;2023-10-08T01:22:00;98679.34;;;19.41
64394;BMP280;50712;49.506;10.400;2023-10-08T01:22:37;98677.31;;;19.42
64394;BMP280;50712;49.506;10.400;2023-10-08T01:23:09;98675.31;;;19.42
64394;BMP280;50712;49.506;10.400;2023-10-08T01:23:47;98682.84;;;19.42
64394;BMP280;50712;49.506;10.400;2023-10-08T01:24:18;98679.34;;;19.41
64394;BMP280;50712;49.506;10.400;2023-10-08T01:24:50;98688.38;;;19.42
64394;BMP280;50712;49.506;10.400;2023-10-08T01:25:20;98686.84;;;19.41
64394;BMP280;50712;49.506;10.400;2023-10-08T01:25:54;98680.06;;;19.42
64394;BMP280;50712;49.506;10.400;2023-10-08T01:26:40;98684.88;;;19.41
64394;BMP280;50712;49.506;10.400;2023-10-08T01:27:10;98687.63;;;19.41
64394;BMP280;50712;49.506;10.400;2023-10-08T01:27:42;98690.38;;;19.41
64394;BMP280;50712;49.506;10.400;2023-10-08T01:28:12;98687.63;;;19.41
64394;BMP280;50712;49.506;10.400;2023-10-08T01:28:48;98682.56;;;19.40
64394;BMP280;50712;49.506;10.400;2023-10-08T01:29:18;98676.31;;;19.39
64394;BMP280;50712;49.506;10.400;2023-10-08T01:29:51;98688.09;;;19.40
64394;BMP280;50712;49.506;10.400;2023-10-08T01:30:22;98681.34;;;19.41
64394;BMP280;50712;49.506;10.400;2023-10-08T01:30:53;98688.09;;;19.40
64394;BMP280;50712;49.506;10.400;2023-10-08T01:31:24;98684.09;;;19.41
64394;BMP280;50712;49.506;10.400;2023-10-08T01:31:55;98690.38;;;19.41
64394;BMP280;50712;49.506;10.400;2023-10-08T01:32:27;98681.81;;;19.39
64394;BMP280;50712;49.506;10.400;2023-10-08T01:32:57;98690.13;;;19.39
64394;BMP280;50712;49.506;10.400;2023-10-08T01:33:28;98682.31;;;19.38
64394;BMP280;50712;49.506;10.400;2023-10-08T01:33:58;98680.31;;;19.38
64394;BMP280;50712;49.506;10.400;2023-10-08T01:34:29;98691.38;;;19.38
64394;BMP280;50712;49.506;10.400;2023-10-08T01:35:06;98686.59;;;19.39
64394;BMP280;50712;49.506;10.400;2023-10-08T01:35:53;98688.63;;;19.38
64394;BMP280;50712;49.506;10.400;2023-10-08T01:36:24;98690.63;;;19.38
64394;BMP280;50712;49.506;10.400;2023-10-08T01:36:56;98687.84;;;19.38
64394;BMP280;50712;49.506;10.400;2023-10-08T01:37:33;98695.38;;;19.37
64394;BMP280;50712;49.506;10.400;2023-10-08T01:38:04;98687.09;;;19.37
64394;BMP280;50712;49.506;10.400;2023-10-08T01:38:36;98681.56;;;19.37
64394;BMP280;50712;49.506;10.400;2023-10-08T01:39:07;98687.09;;;19.37
64394;BMP280;50712;49.506;10.400;2023-10-08T01:39:40;98684.06;;;19.35
64394;BMP280;50712;49.506;10.400;2023-10-08T01:40:12;98687.56;;;19.36
64394;BMP280;50712;49.506;10.400;2023-10-08T01:40:43;98689.09;;;19.37
64394;BMP280;50712;49.506;10.400;2023-10-08T01:41:13;98684.06;;;19.35
64394;BMP280;50712;49.506;10.400;2023-10-08T01:41:49;98684.06;;;19.35
64394;BMP280;50712;49.506;10.400;2023-10-08T01:42:21;98683.31;;;19.35
64394;BMP280;50712;49.506;10.400;2023-10-08T01:42:53;98677.03;;;19.34
64394;BMP280;50712;49.506;10.400;2023-10-08T01:43:23;98683.31;;;19.35
64394;BMP280;50712;49.506;10.400;2023-10-08T01:43:57;98677.03;;;19.34
64394;BMP280;50712;49.506;10.400;2023-10-08T01:44:28;98680.25;;;19.33
64394;BMP280;50712;49.506;10.400;2023-10-08T01:45:00;98685.31;;;19.34
64394;BMP280;50712;49.506;10.400;2023-10-08T01:45:30;98681.78;;;19.34
64394;BMP280;50712;49.506;10.400;2023-10-08T01:46:02;98681.03;;;19.33
64394;BMP280;50712;49.506;10.400;2023-10-08T01:46:33;98674.72;;;19.33
64394;BMP280;50712;49.506;10.400;2023-10-08T01:47:04;98683.78;;;19.33
64394;BMP280;50712;49.506;10.400;2023-10-08T01:47:35;98680.25;;;19.33
64394;BMP280;50712;49.506;10.400;2023-10-08T01:48:06;98685.03;;;19.32
64394;BMP280;50712;49.506;10.400;2023-10-08T01:48:39;98677.50;;;19.33
64394;BMP280;50712;49.506;10.400;2023-10-08T01:49:09;98686.28;;;19.31
64394;BMP280;50712;49.506;10.400;2023-10-08T01:49:45;98683.50;;;19.31
64394;BMP280;50712;49.506;10.400;2023-10-08T01:50:16;98682.25;;;19.32
64394;BMP280;50712;49.506;10.400;2023-10-08T01:50:55;98685.53;;;19.31
64394;BMP280;50712;49.506;10.400;2023-10-08T01:51:26;98686.28;;;19.31
64394;BMP280;50712;49.506;10.400;2023-10-08T01:52:07;98685.53;;;19.31
64394;BMP280;50712;49.506;10.400;2023-10-08T01:52:50;98685.53;;;19.31
64394;BMP280;50712;49.506;10.400;2023-10-08T01:53:21;98681.25;;;19.30
64394;BMP280;50712;49.506;10.400;2023-10-08T01:53:53;98684.00;;;19.30
64394;BMP280;50712;49.506;10.400;2023-10-08T01:54:24;98678.47;;;19.30
64394;BMP280;50712;49.506;10.400;2023-10-08T01:54:56;98691.06;;;19.31
64394;BMP280;50712;49.506;10.400;2023-10-08T01:55:27;98685.28;;;19.29
64394;BMP280;50712;49.506;10.400;2023-10-08T01:55:58;98683.25;;;19.29
64394;BMP280;50712;49.506;10.400;2023-10-08T01:56:28;98688.78;;;19.29
64394;BMP280;50712;49.506;10.400;2023-10-08T01:56:59;98690.81;;;19.29
64394;BMP280;50712;49.506;10.400;2023-10-08T01:57:30;98683.75;;;19.28
64394;BMP280;50712;49.506;10.400;2023-10-08T01:58:01;98689.25;;;19.28
64394;BMP280;50712;49.506;10.400;2023-10-08T01:58:33;98689.25;;;19.28
64394;BMP280;50712;49.506;10.400;2023-10-08T01:59:04;98688.03;;;19.29
64394;BMP280;50712;49.506;10.400;2023-10-08T01:59:34;98685.75;;;19.27
64394;BMP280;50712;49.506;10.400;2023-10-08T02:00:05;98688.50;;;19.27
64394;BMP280;50712;49.506;10.400;2023-10-08T02:00:42;98680.22;;;19.27
64394;BMP280;50712;49.506;10.400;2023-10-08T02:01:19;98686.50;;;19.28
64394;BMP280;50712;49.506;10.400;2023-10-08T02:01:50;98684.97;;;19.27
64394;BMP280;50712;49.506;10.400;2023-10-08T02:02:25;98684.97;;;19.27
64394;BMP280;50712;49.506;10.400;2023-10-08T02:02:56;98684.22;;;19.26
64394;BMP280;50712;49.506;10.400;2023-10-08T02:03:29;98687.72;;;19.27
64394;BMP280;50712;49.506;10.400;2023-10-08T02:03:59;98691.78;;;19.26
64394;BMP280;50712;49.506;10.400;2023-10-08T02:04:30;98694.56;;;19.26
64394;BMP280;50712;49.506;10.400;2023-10-08T02:05:00;98688.25;;;19.25
64394;BMP280;50712;49.506;10.400;2023-10-08T02:05:30;98681.97;;;19.25
64394;BMP280;50712;49.506;10.400;2023-10-08T02:06:02;98685.50;;;19.25
64394;BMP280;50712;49.506;10.400;2023-10-08T02:06:36;98685.50;;;19.25
64394;BMP280;50712;49.506;10.400;2023-10-08T02:07:06;98678.44;;;19.24
64394;BMP280;50712;49.506;10.400;2023-10-08T02:07:43;98684.72;;;19.25
64394;BMP280;50712;49.506;10.400;2023-10-08T02:08:14;98679.19;;;19.25
64394;BMP280;50712;49.506;10.400;2023-10-08T02:08:47;98686.72;;;19.24
64394;BMP280;50712;49.506;10.400;2023-10-08T02:09:17;98672.91;;;19.24
64394;BMP280;50712;49.506;10.400;2023-10-08T02:09:55;98675.69;;;19.24
64394;BMP280;50712;49.506;10.400;2023-10-08T02:10:26;98681.19;;;19.24
64394;BMP280;50712;49.506;10.400;2023-10-08T02:10:56;98679.66;;;19.23
64394;BMP280;50712;49.506;10.400;2023-10-08T02:11:26;98675.69;;;19.24
64394;BMP280;50712;49.506;10.400;2023-10-08T02:11:57;98687.19;;;19.23
64394;BMP280;50712;49.506;10.400;2023-10-08T02:12:28;98678.91;;;19.23
64394;BMP280;50712;49.506;10.400;2023-10-08T02:12:58;98678.91;;;19.23
64394;BMP280;50712;49.506;10.400;2023-10-08T02:13:29;98681.66;;;19.23
64394;BMP280;50712;49.506;10.400;2023-10-08T02:14:00;98679.66;;;19.23
64394;BMP280;50712;49.506;10.400;2023-10-08T02:14:31;98672.63;;;19.22
64394;BMP280;50712;49.506;10.400;2023-10-08T02:15:06;98680.19;;;19.22
64394;BMP280;50712;49.506;10.400;2023-10-08T02:15:40;98675.41;;;19.22
64394;BMP280;50712;49.506;10.400;2023-10-08T02:16:11;98676.13;;;19.23
64394;BMP280;50712;49.506;10.400;2023-10-08T02:16:42;98687.72;;;19.21
64394;BMP280;50712;49.506;10.400;2023-10-08T02:17:13;98674.66;;;19.22
64394;BMP280;50712;49.506;10.400;2023-10-08T02:17:43;98685.72;;;19.22
64394;BMP280;50712;49.506;10.400;2023-10-08T02:18:14;98677.91;;;19.20
64394;BMP280;50712;49.506;10.400;2023-10-08T02:18:44;98678.66;;;19.21
64394;BMP280;50712;49.506;10.400;2023-10-08T02:19:16;98676.66;;;19.21
64394;BMP280;50712;49.506;10.400;2023-10-08T02:19:48;98684.19;;;19.21
64394;BMP280;50712;49.506;10.400;2023-10-08T02:20:19;98684.19;;;19.21
64394;BMP280;50712;49.506;10.400;2023-10-08T02:20:49;98682.19;;;19.21
64394;BMP280;50712;49.506;10.400;2023-10-08T02:21:19;98686.94;;;19.21
64394;BMP280;50712;49.506;10.400;2023-10-08T02:21:50;98677.13;;;19.20
64394;BMP280;50712;49.506;10.400;2023-10-08T02:22:20;98683.44;;;19.20
64394;BMP280;50712;49.506;10.400;2023-10-08T02:22:50;98675.91;;;19.21
64394;BMP280;50712;49.506;10.400;2023-10-08T02:23:21;98680.66;;;19.20
64394;BMP280;50712;49.506;10.400;2023-10-08T02:23:51;98681.44;;;19.21
64394;BMP280;50712;49.506;10.400;2023-10-08T02:24:22;98675.13;;;19.20
64394;BMP280;50712;49.506;10.400;2023-10-08T02:24:55;98674.38;;;19.20
64394;BMP280;50712;49.506;10.400;2023-10-08T02:25:31;98676.41;;;19.19
64394;BMP280;50712;49.506;10.400;2023-10-08T02:26:02;98680.66;;;19.20
64394;BMP280;50712;49.506;10.400;2023-10-08T02:26:32;98680.66;;;19.20
64394;BMP280;50712;49.506;10.400;2023-10-08T02:27:04;98677.91;;;19.20
64394;BMP280;50712;49.506;10.400;2023-10-08T02:27:36;98677.91;;;19.20
64394;BMP280;50712;49.506;10.400;2023-10-08T02:28:07;98680.66;;;19.20
64394;BMP280;50712;49.506;10.400;2023-10-08T02:28:38;98684.19;;;19.21
64394;BMP280;50712;49.506;10.400;2023-10-08T02:29:09;98685.41;;;19.20
64394;BMP280;50712;49.506;10.400;2023-10-08T02:29:42;98679.16;;;19.19
64394;BMP280;50712;49.506;10.400;2023-10-08T02:30:12;98686.69;;;19.19
64394;BMP280;50712;49.506;10.400;2023-10-08T02:30:43;98687.44;;;19.19
64394;BMP280;50712;49.506;10.400;2023-10-08T02:31:13;98680.38;;;19.18
64394;BMP280;50712;49.506;10.400;2023-10-08T02:31:43;98686.69;;;19.19
64394;BMP280;50712;49.506;10.400;2023-10-08T02:32:14;98685.16;;;19.18
64394;BMP280;50712;49.506;10.400;2023-10-08T02:32:44;98687.91;;;19.18
64394;BMP280;50712;49.506;10.400;2023-10-08T02:33:16;98678.13;;;19.17
64394;BMP280;50712;49.506;10.400;2023-10-08T02:33:47;98689.94;;;19.17
64394;BMP280;50712;49.506;10.400;2023-10-08T02:34:17;98684.41;;;19.17
64394;BMP280;50712;49.506;10.400;2023-10-08T02:34:49;98687.19;;;19.17
64394;BMP280;50712;49.506;10.400;2023-10-08T02:35:20;98685.69;;;19.16
64394;BMP280;50712;49.506;10.400;2023-10-08T02:35:52;98689.19;;;19.17
64394;BMP280;50712;49.506;10.400;2023-10-08T02:36:23;98695.97;;;19.16
64394;BMP280;50712;49.506;10.400;2023-10-08T02:36:53;98695.97;;;19.16
64394;BMP280;50712;49.506;10.400;2023-10-08T02:37:26;98697.97;;;19.15
64394;BMP280;50712;49.506;10.400;2023-10-08T02:37:57;98697.19;;;19.15
64394;BMP280;50712;49.506;10.400;2023-10-08T02:38:29;98694.44;;;19.15
64394;BMP280;50712;49.506;10.400;2023-10-08T02:39:00;98695.19;;;19.15
64394;BMP280;50712;49.506;10.400;2023-10-08T02:39:36;98699.19;;;19.14
64394;BMP280;50712;49.506;10.400;2023-10-08T02:40:10;98704.72;;;19.14
64394;BMP280;50712;49.506;10.400;2023-10-08T02:40:55;98695.66;;;19.14
64394;BMP280;50712;49.506;10.400;2023-10-08T02:41:26;98696.94;;;19.13
64394;BMP280;50712;49.506;10.400;2023-10-08T02:41:59;98692.13;;;19.13
64394;BMP280;50712;49.506;10.400;2023-10-08T02:42:30;98691.44;;;19.13
64394;BMP280;50712;49.506;10.400;2023-10-08T02:43:01;98698.94;;;19.12
64394;BMP280;50712;49.506;10.400;2023-10-08T02:43:34;98700.94;;;19.12
64394;BMP280;50712;49.506;10.400;2023-10-08T02:44:07;98700.41;;;19.13
64394;BMP280;50712;49.506;10.400;2023-10-08T02:44:42;98687.91;;;19.12
64394;BMP280;50712;49.506;10.400;2023-10-08T02:45:12;98696.19;;;19.12
64394;BMP280;50712;49.506;10.400;2023-10-08T02:45:43;98695.41;;;19.12
64394;BMP280;50712;49.506;10.400;2023-10-08T02:46:20;98694.19;;;19.13
64394;BMP280;50712;49.506;10.400;2023-10-08T02:46:51;98690.66;;;19.12
64394;BMP280;50712;49.506;10.400;2023-10-08T02:47:22;98691.88;;;19.11
64394;BMP280;50712;49.506;10.400;2023-10-08T02:47:52;98697.41;;;19.11
64394;BMP280;50712;49.506;10.400;2023-10-08T02:48:23;98692.66;;;19.12
64394;BMP280;50712;49.506;10.400;2023-10-08T02:48:53;98697.41;;;19.11
64394;BMP280;50712;49.506;10.400;2023-10-08T02:49:25;98693.41;;;19.12
64394;BMP280;50712;49.506;10.400;2023-10-08T02:49:55;98700.94;;;19.12
64394;BMP280;50712;49.506;10.400;2023-10-08T02:50:25;98696.19;;;19.12
64394;BMP280;50712;49.506;10.400;2023-10-08T02:50:57;98694.66;;;19.11
64394;BMP280;50712;49.506;10.400;2023-10-08T02:51:39;98697.41;;;19.11
64394;BMP280;50712;49.506;10.400;2023-10-08T02:52:11;98700.41;;;19.13
64394;BMP280;50712;49.506;10.400;2023-10-08T02:52:43;98698.94;;;19.12
64394;BMP280;50712;49.506;10.400;2023-10-08T02:53:14;98691.88;;;19.11
64394;BMP280;50712;49.506;10.400;2023-10-08T02:53:48;98689.13;;;19.11
64394;BMP280;50712;49.506;10.400;2023-10-08T02:54:22;98691.88;;;19.11
64394;BMP280;50712;49.506;10.400;2023-10-08T02:55:01;98689.88;;;19.12
64394;BMP280;50712;49.506;10.400;2023-10-08T02:55:32;98687.13;;;19.12
64394;BMP280;50712;49.506;10.400;2023-10-08T02:56:05;98701.72;;;19.12
64394;BMP280;50712;49.506;10.400;2023-10-08T02:56:46;98695.41;;;19.12
64394;BMP280;50712;49.506;10.400;2023-10-08T02:57:21;98694.19;;;19.13
64394;BMP280;50712;49.506;10.400;2023-10-08T02:57:51;98692.66;;;19.12
64394;BMP280;50712;49.506;10.400;2023-10-08T02:58:22;98697.41;;;19.11
64394;BMP280;50712;49.506;10.400;2023-10-08T02:58:55;98700.94;;;19.12
64394;BMP280;50712;49.506;10.400;2023-10-08T02:59:28;98696.66;;;19.11
64394;BMP280;50712;49.506;10.400;2023-10-08T03:00:12;98702.94;;;19.11
64394;BMP280;50712;49.506;10.400;2023-10-08T03:00:47;98698.19;;;19.12
64394;BMP280;50712;49.506;10.400;2023-10-08T03:01:18;98696.41;;;19.09
64394;BMP280;50712;49.506;10.400;2023-10-08T03:01:50;98696.66;;;19.11
64394;BMP280;50712;49.506;10.400;2023-10-08T03:02:26;98699.41;;;19.11
64394;BMP280;50712;49.506;10.400;2023-10-08T03:02:57;98693.88;;;19.11
64394;BMP280;50712;49.506;10.400;2023-10-08T03:03:29;98702.19;;;19.11
64394;BMP280;50712;49.506;10.400;2023-10-08T03:03:59;98703.44;;;19.10
64394;BMP280;50712;49.506;10.400;2023-10-08T03:04:45;98693.88;;;19.11
64394;BMP280;50712;49.506;10.400;2023-10-08T03:05:16;98690.34;;;19.10
64394;BMP280;50712;49.506;10.400;2023-10-08T03:05:49;98696.66;;;19.11
64394;BMP280;50712;49.506;10.400;2023-10-08T03:06:21;98695.88;;;19.10
64394;BMP280;50712;49.506;10.400;2023-10-08T03:06:53;98696.66;;;19.11
64394;BMP280;50712;49.506;10.400;2023-10-08T03:07:23;98692.66;;;19.12
64394;BMP280;50712;49.506;10.400;2023-10-08T03:08:03;98697.41;;;19.11
64394;BMP280;50712;49.506;10.400;2023-10-08T03:08:41;98696.66;;;19.11
64394;BMP280;50712;49.506;10.400;2023-10-08T03:09:12;98702.94;;;19.11
64394;BMP280;50712;49.506;10.400;2023-10-08T03:09:43;98702.94;;;19.11
64394;BMP280;50712;49.506;10.400;2023-10-08T03:10:14;98702.94;;;19.11
64394;BMP280;50712;49.506;10.400;2023-10-08T03:10:49;98712.75;;;19.12